Time;durP1;ratioP1;P1;durP2;ratioP2;P2;SDS_P1;SDS_P2;PMS_P1;PMS_P2;Temp;Humidity;BMP_temperature;BMP_pressure;BME280_temperature;BME280_humidity;BME280_pressure;Samples;Min_cycle;Max_cycle;Signal;HPM_P1;HPM_P2
2022/11/09 00:00:45;;;;;;;3.85;1.85;;;;;;;;;;4981384;28;20034;-48
2022/11/09 00:03:11;;;;;;;4.20;2.40;;;;;;;;;;4983814;28;20077;-48
2022/11/09 00:05:36;;;;;;;4.28;2.88;;;;;;;;;;4980952;28;20435;-50
2022/11/09 00:08:09;;;;;;;2.75;1.98;;;;;;;;;;4984425;28;20771;-50
2022/11/09 00:10:35;;;;;;;4.55;2.20;;;;;;;;;;4985780;28;20049;-49
2022/11/09 00:13:01;;;;;;;4.60;2.30;;;;;;;;;;4979846;28;20053;-49
2022/11/09 00:15:27;;;;;;;3.67;2.33;;;;;;;;;;4977912;28;20612;-51
2022/11/09 00:17:52;;;;;;;3.20;2.10;;;;;;;;;;4979267;28;20046;-50
2022/11/09 00:20:18;;;;;;;5.32;2.35;;;;;;;;;;4978854;28;20034;-45
2022/11/09 00:22:47;;;;;;;7.57;2.60;;;;;;;;;;4994734;28;20049;-47
2022/11/09 00:25:13;;;;;;;5.35;2.20;;;;;;;;;;5013634;28;20550;-50
2022/11/09 00:27:38;;;;;;;6.90;2.20;;;;;;;;;;5015436;28;20104;-48
2022/11/09 00:30:04;;;;;;;5.03;2.30;;;;;;;;;;5009327;28;20037;-51
2022/11/09 00:32:29;;;;;;;3.08;2.05;;;;;;;;;;5010063;28;20025;-50
2022/11/09 00:34:54;;;;;;;3.67;2.00;;;;;;;;;;5022319;28;20731;-46
2022/11/09 00:37:20;;;;;;;5.07;2.28;;;;;;;;;;5016973;28;20035;-50
2022/11/09 00:39:45;;;;;;;4.82;1.90;;;;;;;;;;5014347;28;20461;-50
2022/11/09 00:42:11;;;;;;;9.10;2.80;;;;;;;;;;5018338;28;20500;-52
2022/11/09 00:44:36;;;;;;;2.75;2.03;;;;;;;;;;5012974;28;20133;-47
2022/11/09 00:47:01;;;;;;;3.70;2.10;;;;;;;;;;5014205;28;20112;-50
2022/11/09 00:49:27;;;;;;;3.53;2.40;;;;;;;;;;5009532;28;20136;-47
2022/11/09 00:51:52;;;;;;;2.80;2.17;;;;;;;;;;5015161;28;20112;-51
2022/11/09 00:54:17;;;;;;;2.53;1.73;;;;;;;;;;5015927;28;20053;-49
2022/11/09 00:56:43;;;;;;;5.82;1.92;;;;;;;;;;5021347;28;20033;-50
2022/11/09 00:59:10;;;;;;;6.05;2.45;;;;;;;;;;5015804;28;20089;-47
2022/11/09 01:01:35;;;;;;;3.17;2.00;;;;;;;;;;5017709;28;20025;-48
2022/11/09 01:04:01;;;;;;;4.70;1.90;;;;;;;;;;5011829;28;20089;-49
2022/11/09 01:06:26;;;;;;;6.35;1.98;;;;;;;;;;5021953;28;20029;-49
2022/11/09 01:08:52;;;;;;;4.55;2.30;;;;;;;;;;5017780;28;20137;-49
2022/11/09 01:11:18;;;;;;;7.22;2.33;;;;;;;;;;5018204;28;20061;-49
2022/11/09 01:13:44;;;;;;;4.03;1.80;;;;;;;;;;5016972;28;20060;-48
2022/11/09 01:16:13;;;;;;;5.35;2.15;;;;;;;;;;5017704;28;20482;-51
2022/11/09 01:18:39;;;;;;;2.40;1.70;;;;;;;;;;5014549;28;20033;-52
2022/11/09 01:21:07;;;;;;;3.38;1.88;;;;;;;;;;5013753;28;20056;-48
2022/11/09 01:23:32;;;;;;;6.82;3.45;;;;;;;;;;5011166;28;20038;-51
2022/11/09 01:26:05;;;;;;;4.30;1.80;;;;;;;;;;5014088;28;20375;-51
2022/11/09 01:28:31;;;;;;;6.75;2.95;;;;;;;;;;5010710;28;20072;-50
2022/11/09 01:31:01;;;;;;;3.75;1.73;;;;;;;;;;5015410;28;20681;-50
2022/11/09 01:33:26;;;;;;;2.65;1.92;;;;;;;;;;5010960;28;20102;-49
2022/11/09 01:35:52;;;;;;;6.75;2.08;;;;;;;;;;5015847;28;20128;-48
2022/11/09 01:38:17;;;;;;;4.03;2.30;;;;;;;;;;5015812;28;20064;-50
2022/11/09 01:40:42;;;;;;;2.05;1.83;;;;;;;;;;5020706;28;20034;-49
2022/11/09 01:43:16;;;;;;;4.93;2.13;;;;;;;;;;5015076;28;20493;-47
2022/11/09 01:45:47;;;;;;;6.20;2.20;;;;;;;;;;5017037;28;20025;-49
2022/11/09 01:48:17;;;;;;;4.55;2.03;;;;;;;;;;5012937;28;20048;-50
2022/11/09 01:50:57;;;;;;;3.22;2.00;;;;;;;;;;5017932;28;20061;-52
2022/11/09 01:53:26;;;;;;;4.07;2.10;;;;;;;;;;5011245;28;20049;-49
2022/11/09 01:55:55;;;;;;;5.10;1.70;;;;;;;;;;5014332;28;20103;-51
2022/11/09 01:58:26;;;;;;;4.60;2.22;;;;;;;;;;5014521;28;20037;-50
2022/11/09 02:00:53;;;;;;;5.10;2.28;;;;;;;;;;5014031;28;20045;-47
2022/11/09 02:03:21;;;;;;;5.20;2.03;;;;;;;;;;5013116;28;20042;-51
2022/11/09 02:05:48;;;;;;;5.68;2.50;;;;;;;;;;5016384;28;20088;-49
2022/11/09 02:08:17;;;;;;;9.63;1.83;;;;;;;;;;5017466;28;20054;-50
2022/11/09 02:11:04;;;;;;;6.75;2.10;;;;;;;;;;5010974;28;20042;-49
2022/11/09 02:13:30;;;;;;;2.50;1.90;;;;;;;;;;5012763;28;20135;-50
2022/11/09 02:15:56;;;;;;;3.42;1.52;;;;;;;;;;5010174;28;20097;-51
2022/11/09 02:18:21;;;;;;;6.03;2.03;;;;;;;;;;5014384;28;20041;-52
2022/11/09 02:20:52;;;;;;;5.75;2.25;;;;;;;;;;5016743;28;20478;-46
2022/11/09 02:23:18;;;;;;;2.97;1.88;;;;;;;;;;5014826;28;20044;-46
2022/11/09 02:25:47;;;;;;;3.75;1.83;;;;;;;;;;5015237;28;20029;-46
2022/11/09 02:28:15;;;;;;;2.45;1.80;;;;;;;;;;5009139;28;20441;-47
2022/11/09 02:30:41;;;;;;;3.40;1.67;;;;;;;;;;5015707;28;20497;-45
2022/11/09 02:33:07;;;;;;;4.22;2.50;;;;;;;;;;5017702;28;20494;-46
2022/11/09 02:35:32;;;;;;;4.55;2.03;;;;;;;;;;5010799;28;20026;-44
2022/11/09 02:37:58;;;;;;;3.08;1.88;;;;;;;;;;5016066;28;20046;-47
2022/11/09 02:40:28;;;;;;;3.85;1.90;;;;;;;;;;5013657;28;20023;-46
2022/11/09 02:42:55;;;;;;;4.22;1.65;;;;;;;;;;5015267;28;20068;-45
2022/11/09 02:45:21;;;;;;;4.55;2.22;;;;;;;;;;5011628;28;20033;-45
2022/11/09 02:47:46;;;;;;;6.20;2.17;;;;;;;;;;5011710;28;20413;-45
2022/11/09 02:50:12;;;;;;;2.53;2.30;;;;;;;;;;5008893;28;20080;-47
2022/11/09 02:52:37;;;;;;;4.40;2.42;;;;;;;;;;5014350;28;20049;-48
2022/11/09 02:55:03;;;;;;;1.90;1.80;;;;;;;;;;5013876;28;20367;-48
2022/11/09 02:57:28;;;;;;;5.45;1.60;;;;;;;;;;5016823;28;20032;-47
2022/11/09 02:59:54;;;;;;;6.22;1.85;;;;;;;;;;5016616;28;20521;-49
2022/11/09 03:02:19;;;;;;;3.72;2.10;;;;;;;;;;5018176;28;20159;-47
2022/11/09 03:04:44;;;;;;;4.28;1.83;;;;;;;;;;5015379;28;20041;-45
2022/11/09 03:07:10;;;;;;;2.83;1.88;;;;;;;;;;5016290;28;20494;-48
2022/11/09 03:09:35;;;;;;;4.28;1.98;;;;;;;;;;5014339;28;20038;-46
2022/11/09 03:12:27;;;;;;;4.85;1.52;;;;;;;;;;5017853;28;20061;-47
2022/11/09 03:14:49;;;;;;;4.38;2.17;;;;;;;;;;5011173;28;20082;-50
2022/11/09 03:17:15;;;;;;;3.42;1.80;;;;;;;;;;5019145;28;20057;-47
2022/11/09 03:19:40;;;;;;;5.07;2.28;;;;;;;;;;5009250;28;20037;-47
2022/11/09 03:22:06;;;;;;;4.38;1.90;;;;;;;;;;5017992;28;20719;-47
2022/11/09 03:24:31;;;;;;;3.28;2.00;;;;;;;;;;5013158;28;20046;-50
2022/11/09 03:26:56;;;;;;;10.52;2.80;;;;;;;;;;5012023;28;20018;-47
2022/11/09 03:29:22;;;;;;;4.93;1.80;;;;;;;;;;5015580;28;20041;-49
2022/11/09 03:31:47;;;;;;;4.38;2.05;;;;;;;;;;5015677;28;20057;-45
2022/11/09 03:34:12;;;;;;;2.88;1.85;;;;;;;;;;5016505;28;20406;-46
2022/11/09 03:36:38;;;;;;;2.90;1.50;;;;;;;;;;5013440;28;20025;-46
2022/11/09 03:39:03;;;;;;;5.35;2.00;;;;;;;;;;5011621;28;20494;-50
2022/11/09 03:41:28;;;;;;;4.80;2.03;;;;;;;;;;5017006;28;20364;-47
2022/11/09 03:43:54;;;;;;;3.95;2.05;;;;;;;;;;5010352;28;20608;-47
2022/11/09 03:46:19;;;;;;;3.80;1.50;;;;;;;;;;5009801;28;20125;-46
2022/11/09 03:48:44;;;;;;;2.65;1.55;;;;;;;;;;5018101;28;20130;-49
2022/11/09 03:51:10;;;;;;;3.30;2.00;;;;;;;;;;5011246;28;20040;-51
2022/11/09 03:53:35;;;;;;;4.13;1.90;;;;;;;;;;5022410;28;20052;-46
2022/11/09 03:56:00;;;;;;;7.57;2.35;;;;;;;;;;5009207;28;20018;-47
2022/11/09 03:58:26;;;;;;;1.70;1.60;;;;;;;;;;5014537;28;20509;-47
2022/11/09 04:00:51;;;;;;;2.72;1.70;;;;;;;;;;5019500;28;20025;-49
2022/11/09 04:03:16;;;;;;;3.10;1.92;;;;;;;;;;5015170;28;20042;-48
2022/11/09 04:05:42;;;;;;;3.45;1.75;;;;;;;;;;5016807;28;20121;-48
2022/11/09 04:08:07;;;;;;;4.82;1.77;;;;;;;;;;5020634;28;20548;-46
2022/11/09 04:10:33;;;;;;;2.13;1.45;;;;;;;;;;5020405;28;20117;-48
2022/11/09 04:12:58;;;;;;;6.80;2.35;;;;;;;;;;5017217;28;20053;-49
2022/11/09 04:15:23;;;;;;;5.65;1.77;;;;;;;;;;5011849;28;20025;-44
2022/11/09 04:17:59;;;;;;;4.55;1.77;;;;;;;;;;5015946;28;20701;-47
2022/11/09 04:20:26;;;;;;;2.13;1.50;;;;;;;;;;5011086;28;20030;-45
2022/11/09 04:22:56;;;;;;;3.67;1.80;;;;;;;;;;5014830;28;20033;-44
2022/11/09 04:25:22;;;;;;;5.90;1.88;;;;;;;;;;5018304;28;20026;-45
2022/11/09 04:27:47;;;;;;;3.55;1.70;;;;;;;;;;5017494;28;20057;-46
2022/11/09 04:30:13;;;;;;;4.55;2.05;;;;;;;;;;5014843;28;20029;-44
2022/11/09 04:32:38;;;;;;;8.13;1.92;;;;;;;;;;5011958;28;20029;-46
2022/11/09 04:35:04;;;;;;;5.80;1.75;;;;;;;;;;5017783;28;20087;-47
2022/11/09 04:37:30;;;;;;;5.40;1.73;;;;;;;;;;5016900;28;20034;-45
2022/11/09 04:39:55;;;;;;;3.83;1.80;;;;;;;;;;5015784;28;20532;-45
2022/11/09 04:42:20;;;;;;;7.57;1.65;;;;;;;;;;5018219;28;20120;-48
2022/11/09 04:44:46;;;;;;;5.78;2.10;;;;;;;;;;5007517;28;20040;-45
2022/11/09 04:47:11;;;;;;;5.20;1.92;;;;;;;;;;5014268;28;20026;-44
2022/11/09 04:49:36;;;;;;;2.88;1.92;;;;;;;;;;5020789;28;20034;-45
2022/11/09 04:52:02;;;;;;;3.00;1.63;;;;;;;;;;5016070;28;20650;-45
2022/11/09 04:54:27;;;;;;;5.15;2.15;;;;;;;;;;5014501;28;20038;-45
2022/11/09 04:56:53;;;;;;;3.97;1.83;;;;;;;;;;5017112;28;20028;-46
2022/11/09 04:59:18;;;;;;;2.35;1.67;;;;;;;;;;5017951;28;20061;-47
2022/11/09 05:01:43;;;;;;;4.50;1.75;;;;;;;;;;5012754;28;20021;-45
2022/11/09 05:04:09;;;;;;;3.80;1.30;;;;;;;;;;5015138;28;20065;-47
2022/11/09 05:06:34;;;;;;;5.40;1.90;;;;;;;;;;5017803;28;20105;-45
2022/11/09 05:09:05;;;;;;;1.95;1.75;;;;;;;;;;5018172;28;20052;-45
2022/11/09 05:11:32;;;;;;;2.20;1.80;;;;;;;;;;5015258;28;20528;-46
2022/11/09 05:13:57;;;;;;;4.85;1.73;;;;;;;;;;5015645;28;20402;-48
2022/11/09 05:16:23;;;;;;;6.80;2.33;;;;;;;;;;5013400;28;20026;-46
2022/11/09 05:18:49;;;;;;;7.03;2.60;;;;;;;;;;5020109;28;20116;-46
2022/11/09 05:21:15;;;;;;;3.95;2.10;;;;;;;;;;5016867;28;20543;-46
2022/11/09 05:23:58;;;;;;;5.40;2.10;;;;;;;;;;5014066;28;20041;-46
2022/11/09 05:26:42;;;;;;;2.92;1.80;;;;;;;;;;5019931;28;20112;-45
2022/11/09 05:29:09;;;;;;;2.40;2.00;;;;;;;;;;5011122;28;20038;-47
2022/11/09 05:31:36;;;;;;;5.18;1.70;;;;;;;;;;5016576;28;20113;-45
2022/11/09 05:34:02;;;;;;;6.63;2.28;;;;;;;;;;5013231;28;20430;-47
2022/11/09 05:36:29;;;;;;;7.55;2.22;;;;;;;;;;5017215;28;20075;-47
2022/11/09 05:38:55;;;;;;;5.57;1.70;;;;;;;;;;5016658;28;20045;-48
2022/11/09 05:41:20;;;;;;;5.85;2.33;;;;;;;;;;5015341;28;20057;-45
2022/11/09 05:43:46;;;;;;;2.70;1.95;;;;;;;;;;5012425;28;20061;-45
2022/11/09 05:46:13;;;;;;;4.38;2.10;;;;;;;;;;5011673;28;20037;-46
2022/11/09 05:48:38;;;;;;;4.80;1.98;;;;;;;;;;5007570;28;20045;-46
2022/11/09 05:51:06;;;;;;;8.75;1.80;;;;;;;;;;5014268;28;20076;-48
2022/11/09 05:53:31;;;;;;;4.93;1.75;;;;;;;;;;5006981;28;20037;-46
2022/11/09 05:56:11;;;;;;;3.45;1.98;;;;;;;;;;5003860;28;20022;-47
2022/11/09 05:58:37;;;;;;;5.57;1.85;;;;;;;;;;5011082;28;20034;-45
2022/11/09 06:01:08;;;;;;;3.72;1.80;;;;;;;;;;5007889;28;20038;-46
2022/11/09 06:03:34;;;;;;;3.22;1.95;;;;;;;;;;4997224;28;20088;-47
2022/11/09 06:06:04;;;;;;;3.45;1.95;;;;;;;;;;5003734;28;20033;-45
2022/11/09 06:08:30;;;;;;;2.72;2.17;;;;;;;;;;5007897;28;20037;-47
2022/11/09 06:11:00;;;;;;;4.70;1.80;;;;;;;;;;5007778;28;20026;-46
2022/11/09 06:13:27;;;;;;;3.72;1.70;;;;;;;;;;5016046;28;20165;-45
2022/11/09 06:15:57;;;;;;;7.22;2.00;;;;;;;;;;5009988;28;20036;-45
2022/11/09 06:18:24;;;;;;;4.13;2.00;;;;;;;;;;5002311;28;20065;-46
2022/11/09 06:20:54;;;;;;;4.03;1.70;;;;;;;;;;5001326;28;20509;-46
2022/11/09 06:23:24;;;;;;;7.10;2.00;;;;;;;;;;5005768;28;20042;-46
2022/11/09 06:26:02;;;;;;;5.10;2.03;;;;;;;;;;5003236;28;20042;-49
2022/11/09 06:28:28;;;;;;;2.70;1.80;;;;;;;;;;5002454;28;20038;-49
2022/11/09 06:31:01;;;;;;;4.63;2.03;;;;;;;;;;5008494;28;20044;-47
2022/11/09 06:33:28;;;;;;;4.57;2.00;;;;;;;;;;5011641;28;20073;-48
2022/11/09 06:35:55;;;;;;;5.28;2.58;;;;;;;;;;5006161;28;20125;-51
2022/11/09 06:38:21;;;;;;;3.30;2.00;;;;;;;;;;5005625;28;20030;-47
2022/11/09 06:40:50;;;;;;;5.93;2.50;;;;;;;;;;5006719;28;20021;-49
2022/11/09 06:43:16;;;;;;;4.43;2.40;;;;;;;;;;5004017;28;20433;-49
2022/11/09 06:45:41;;;;;;;4.07;1.80;;;;;;;;;;5017985;28;20022;-52
2022/11/09 06:48:09;;;;;;;6.28;2.15;;;;;;;;;;5011408;28;20514;-51
2022/11/09 06:50:34;;;;;;;6.40;1.83;;;;;;;;;;4998446;28;20030;-52
2022/11/09 06:53:03;;;;;;;6.38;2.40;;;;;;;;;;5014846;28;20056;-52
2022/11/09 06:55:30;;;;;;;7.03;2.22;;;;;;;;;;5013009;28;20542;-48
2022/11/09 06:57:56;;;;;;;4.65;2.40;;;;;;;;;;5013152;28;20561;-49
2022/11/09 07:00:22;;;;;;;6.63;2.17;;;;;;;;;;5012060;28;20101;-49
2022/11/09 07:02:47;;;;;;;7.10;2.20;;;;;;;;;;5007964;28;20042;-47
2022/11/09 07:05:13;;;;;;;4.45;1.92;;;;;;;;;;5002971;28;20111;-52
2022/11/09 07:07:38;;;;;;;6.30;2.47;;;;;;;;;;5005922;28;20062;-52
2022/11/09 07:10:04;;;;;;;3.28;1.75;;;;;;;;;;5010026;28;20041;-51
2022/11/09 07:12:31;;;;;;;5.55;2.05;;;;;;;;;;5017272;28;20038;-51
2022/11/09 07:14:56;;;;;;;3.90;2.10;;;;;;;;;;5012750;28;20085;-49
2022/11/09 07:17:22;;;;;;;8.05;2.25;;;;;;;;;;5014444;28;20661;-48
2022/11/09 07:19:47;;;;;;;12.43;3.22;;;;;;;;;;5016774;28;20121;-51
2022/11/09 07:22:12;;;;;;;17.75;4.47;;;;;;;;;;5011720;28;20544;-50
2022/11/09 07:24:38;;;;;;;9.98;2.70;;;;;;;;;;5012590;28;20141;-49
2022/11/09 07:27:03;;;;;;;6.65;2.50;;;;;;;;;;5017637;28;20096;-48
2022/11/09 07:29:28;;;;;;;3.75;1.70;;;;;;;;;;5019730;28;20445;-45
2022/11/09 07:31:54;;;;;;;12.35;2.22;;;;;;;;;;5021752;28;20033;-46
2022/11/09 07:34:20;;;;;;;6.50;2.30;;;;;;;;;;5016600;28;20068;-46
2022/11/09 07:36:45;;;;;;;14.07;2.53;;;;;;;;;;5010992;28;20034;-50
2022/11/09 07:39:10;;;;;;;4.18;1.90;;;;;;;;;;5015353;28;20038;-49
2022/11/09 07:41:36;;;;;;;5.55;2.33;;;;;;;;;;5003226;28;20068;-48
2022/11/09 07:44:01;;;;;;;5.82;2.40;;;;;;;;;;5017615;28;20104;-50
2022/11/09 07:46:27;;;;;;;8.05;2.33;;;;;;;;;;5018957;28;20032;-49
2022/11/09 07:48:52;;;;;;;6.43;2.30;;;;;;;;;;5018387;28;20042;-48
2022/11/09 07:51:17;;;;;;;5.30;2.10;;;;;;;;;;5021069;28;20136;-48
2022/11/09 07:53:43;;;;;;;8.75;2.45;;;;;;;;;;5016902;28;20053;-46
2022/11/09 07:56:08;;;;;;;4.40;2.08;;;;;;;;;;5019403;28;20021;-47
2022/11/09 07:58:34;;;;;;;4.82;2.30;;;;;;;;;;5013600;28;20132;-47
2022/11/09 08:01:00;;;;;;;7.50;2.30;;;;;;;;;;5015232;28;20036;-50
2022/11/09 08:03:25;;;;;;;13.27;2.35;;;;;;;;;;5016414;28;20045;-48
2022/11/09 08:05:51;;;;;;;4.32;1.83;;;;;;;;;;5017182;28;20050;-49
2022/11/09 08:08:16;;;;;;;8.23;2.22;;;;;;;;;;5013493;28;20037;-45
2022/11/09 08:10:49;;;;;;;8.05;1.92;;;;;;;;;;5019933;28;20025;-49
2022/11/09 08:13:14;;;;;;;6.97;2.35;;;;;;;;;;5020551;28;20124;-48
2022/11/09 08:15:41;;;;;;;6.85;2.58;;;;;;;;;;5019225;28;20034;-47
2022/11/09 08:18:10;;;;;;;5.30;2.30;;;;;;;;;;5019236;28;20037;-47
2022/11/09 08:20:36;;;;;;;5.97;2.08;;;;;;;;;;5021064;28;20080;-51
2022/11/09 08:23:02;;;;;;;6.18;2.55;;;;;;;;;;5016913;28;20042;-46
2022/11/09 08:25:28;;;;;;;14.52;2.80;;;;;;;;;;5021941;28;20017;-50
2022/11/09 08:27:55;;;;;;;8.48;2.55;;;;;;;;;;5018833;28;20121;-47
2022/11/09 08:30:21;;;;;;;9.10;2.88;;;;;;;;;;5012798;28;20025;-49
2022/11/09 08:32:47;;;;;;;9.70;2.28;;;;;;;;;;5013032;28;20037;-48
2022/11/09 08:35:16;;;;;;;10.25;2.60;;;;;;;;;;5022491;28;20037;-45
2022/11/09 08:37:43;;;;;;;4.22;2.10;;;;;;;;;;5014725;28;20045;-46
2022/11/09 08:40:09;;;;;;;5.88;2.65;;;;;;;;;;5015735;28;20018;-47
2022/11/09 08:42:34;;;;;;;5.70;2.78;;;;;;;;;;5019147;28;20064;-50
2022/11/09 08:45:00;;;;;;;7.93;2.40;;;;;;;;;;5013917;28;20402;-48
2022/11/09 08:47:26;;;;;;;9.23;2.30;;;;;;;;;;5018664;28;20052;-45
2022/11/09 08:49:51;;;;;;;10.77;2.40;;;;;;;;;;5017284;28;20034;-47
2022/11/09 08:52:16;;;;;;;7.60;2.33;;;;;;;;;;5016432;28;20038;-48
2022/11/09 08:54:42;;;;;;;5.60;3.08;;;;;;;;;;5021702;28;20033;-48
2022/11/09 08:57:08;;;;;;;19.67;2.80;;;;;;;;;;5017277;28;20542;-47
2022/11/09 08:59:33;;;;;;;9.07;2.40;;;;;;;;;;5014900;28;20041;-46
2022/11/09 09:01:58;;;;;;;5.35;2.40;;;;;;;;;;5013758;28;20053;-47
2022/11/09 09:04:24;;;;;;;5.00;2.67;;;;;;;;;;5016087;28;20041;-46
2022/11/09 09:06:49;;;;;;;6.45;2.88;;;;;;;;;;5018516;28;20040;-46
2022/11/09 09:09:15;;;;;;;5.35;2.55;;;;;;;;;;5016941;28;20042;-48
2022/11/09 09:11:40;;;;;;;5.30;2.20;;;;;;;;;;5017601;28;20030;-49
2022/11/09 09:14:05;;;;;;;6.25;2.42;;;;;;;;;;5013605;28;20080;-49
2022/11/09 09:16:32;;;;;;;10.70;2.97;;;;;;;;;;5019563;28;20030;-48
2022/11/09 09:18:57;;;;;;;9.35;2.80;;;;;;;;;;5014304;28;20555;-47
2022/11/09 09:21:22;;;;;;;10.52;2.83;;;;;;;;;;5013006;28;20042;-48
2022/11/09 09:23:48;;;;;;;10.95;3.53;;;;;;;;;;5021017;28;20049;-45
2022/11/09 09:26:15;;;;;;;6.28;2.60;;;;;;;;;;5017489;28;20049;-48
2022/11/09 09:28:40;;;;;;;9.10;3.13;;;;;;;;;;5012556;28;20414;-47
2022/11/09 09:31:06;;;;;;;13.55;4.28;;;;;;;;;;5020292;28;20076;-46
2022/11/09 09:33:32;;;;;;;5.82;2.80;;;;;;;;;;5018182;28;20410;-46
2022/11/09 09:35:57;;;;;;;8.10;2.75;;;;;;;;;;5014241;28;20026;-46
2022/11/09 09:38:24;;;;;;;5.85;2.83;;;;;;;;;;5011105;28;20046;-47
2022/11/09 09:40:57;;;;;;;4.88;2.70;;;;;;;;;;5015875;28;20025;-48
2022/11/09 09:43:27;;;;;;;8.38;2.88;;;;;;;;;;5008889;28;20513;-46
2022/11/09 09:45:53;;;;;;;7.78;2.50;;;;;;;;;;5017747;28;20033;-48
2022/11/09 09:48:24;;;;;;;10.50;2.47;;;;;;;;;;5013357;28;20128;-47
2022/11/09 09:50:57;;;;;;;7.67;2.50;;;;;;;;;;5016511;28;20024;-47
2022/11/09 09:53:31;;;;;;;7.93;2.35;;;;;;;;;;5018008;28;20049;-51
2022/11/09 09:56:03;;;;;;;10.32;2.70;;;;;;;;;;5017166;28;20037;-46
2022/11/09 09:58:31;;;;;;;10.15;3.25;;;;;;;;;;5011896;28;20037;-47
2022/11/09 10:01:10;;;;;;;10.85;2.45;;;;;;;;;;5018486;28;20474;-46
2022/11/09 10:03:36;;;;;;;13.63;2.65;;;;;;;;;;5019834;28;20049;-47
2022/11/09 10:06:21;;;;;;;9.82;3.17;;;;;;;;;;5014141;28;20429;-47
2022/11/09 10:08:50;;;;;;;8.77;2.50;;;;;;;;;;5008312;28;20383;-48
2022/11/09 10:11:36;;;;;;;8.30;2.20;;;;;;;;;;5017445;28;20021;-46
2022/11/09 10:14:10;;;;;;;10.30;2.53;;;;;;;;;;5011409;28;20562;-46
2022/11/09 10:17:00;;;;;;;8.70;3.08;;;;;;;;;;5014137;28;20041;-46
2022/11/09 10:19:37;;;;;;;13.07;3.60;;;;;;;;;;5014807;28;20037;-47
2022/11/09 10:22:10;;;;;;;5.30;2.28;;;;;;;;;;5015306;28;20033;-49
2022/11/09 10:24:50;;;;;;;8.05;2.30;;;;;;;;;;5016158;28;20137;-47
2022/11/09 10:27:38;;;;;;;5.03;2.33;;;;;;;;;;5011246;28;20108;-48
2022/11/09 10:30:15;;;;;;;8.75;2.50;;;;;;;;;;5014152;28;20088;-46
2022/11/09 10:32:43;;;;;;;13.57;2.75;;;;;;;;;;5013714;28;20037;-47
2022/11/09 10:35:46;;;;;;;8.23;2.53;;;;;;;;;;5017077;28;20030;-47
2022/11/09 10:38:21;;;;;;;9.23;2.92;;;;;;;;;;4939252;28;20613;-48
2022/11/09 10:41:05;;;;;;;10.70;1.98;;;;;;;;;;4953936;28;20118;-48
2022/11/09 10:43:31;;;;;;;9.98;2.25;;;;;;;;;;4954249;28;20047;-46
2022/11/09 10:45:59;;;;;;;9.27;2.75;;;;;;;;;;4956737;28;20031;-49
2022/11/09 10:48:31;;;;;;;12.50;2.67;;;;;;;;;;4952944;28;20146;-50
2022/11/09 10:50:57;;;;;;;14.00;2.63;;;;;;;;;;4958171;28;20473;-52
2022/11/09 10:53:27;;;;;;;13.00;2.22;;;;;;;;;;4956492;28;20047;-49
2022/11/09 10:55:57;;;;;;;8.77;2.70;;;;;;;;;;4955515;28;20074;-48
2022/11/09 10:58:31;;;;;;;10.48;2.70;;;;;;;;;;4947283;28;20039;-46
2022/11/09 11:01:01;;;;;;;15.10;2.70;;;;;;;;;;4956831;28;20415;-46
2022/11/09 11:03:29;;;;;;;15.32;3.15;;;;;;;;;;4958426;28;20684;-48
2022/11/09 11:05:59;;;;;;;8.63;2.35;;;;;;;;;;4937064;28;20035;-46
2022/11/09 11:08:53;;;;;;;9.10;2.70;;;;;;;;;;4950212;28;20125;-49
2022/11/09 11:11:21;;;;;;;5.53;2.30;;;;;;;;;;4938207;29;20047;-48
2022/11/09 11:13:49;;;;;;;8.70;2.50;;;;;;;;;;4965852;28;20049;-47
2022/11/09 11:16:26;;;;;;;10.63;3.13;;;;;;;;;;4992496;28;20038;-47
2022/11/09 11:18:51;;;;;;;8.60;2.38;;;;;;;;;;5007856;28;20045;-49
2022/11/09 11:21:19;;;;;;;8.02;2.13;;;;;;;;;;5013185;28;20049;-46
2022/11/09 11:24:07;;;;;;;8.90;2.38;;;;;;;;;;5016157;28;20064;-49
2022/11/09 11:26:37;;;;;;;13.10;3.28;;;;;;;;;;5013175;28;20076;-45
2022/11/09 11:29:17;;;;;;;6.68;2.33;;;;;;;;;;5014464;28;20038;-45
2022/11/09 11:31:43;;;;;;;7.15;2.55;;;;;;;;;;5009873;28;20037;-48
2022/11/09 11:34:12;;;;;;;9.40;2.35;;;;;;;;;;5018731;28;20053;-46
2022/11/09 11:36:49;;;;;;;9.43;3.38;;;;;;;;;;5015964;28;20615;-47
2022/11/09 11:39:36;;;;;;;8.63;3.30;;;;;;;;;;5017278;28;20065;-47
2022/11/09 11:42:23;;;;;;;8.27;2.60;;;;;;;;;;5015058;28;20045;-47
2022/11/09 11:44:55;;;;;;;10.73;2.35;;;;;;;;;;5013360;28;20057;-46
2022/11/09 11:47:37;;;;;;;9.90;2.35;;;;;;;;;;5010220;28;20037;-48
2022/11/09 11:50:38;;;;;;;11.35;2.22;;;;;;;;;;5014157;28;20049;-47
2022/11/09 11:53:13;;;;;;;11.23;2.13;;;;;;;;;;5020214;28;20635;-46
2022/11/09 11:55:38;;;;;;;5.05;2.30;;;;;;;;;;5016976;28;20025;-51
2022/11/09 11:58:25;;;;;;;5.45;2.30;;;;;;;;;;5015573;28;20046;-48
2022/11/09 12:01:02;;;;;;;11.93;2.65;;;;;;;;;;5020596;28;20021;-48
2022/11/09 12:03:43;;;;;;;7.15;2.50;;;;;;;;;;5010314;28;20387;-46
2022/11/09 12:06:33;;;;;;;7.22;2.90;;;;;;;;;;5021127;28;20026;-46
2022/11/09 12:09:01;;;;;;;6.90;2.15;;;;;;;;;;5017974;28;20037;-48
2022/11/09 12:11:40;;;;;;;11.07;2.90;;;;;;;;;;5016409;28;20101;-47
2022/11/09 12:14:11;;;;;;;13.32;2.67;;;;;;;;;;5016058;28;20038;-48
2022/11/09 12:16:53;;;;;;;13.40;2.60;;;;;;;;;;5014380;28;20144;-46
2022/11/09 12:19:41;;;;;;;11.70;2.60;;;;;;;;;;5017707;28;20091;-46
2022/11/09 12:22:37;;;;;;;6.95;2.65;;;;;;;;;;5017168;28;20128;-46
2022/11/09 12:25:30;;;;;;;9.07;2.47;;;;;;;;;;5021377;28;20456;-48
2022/11/09 12:28:06;;;;;;;9.85;2.53;;;;;;;;;;5016670;28;20514;-46
2022/11/09 12:30:51;;;;;;;6.22;2.10;;;;;;;;;;5009479;28;20037;-47
2022/11/09 12:33:53;;;;;;;13.52;2.90;;;;;;;;;;5018986;28;20085;-49
2022/11/09 12:36:24;;;;;;;10.85;3.20;;;;;;;;;;5015110;28;20036;-50
2022/11/09 12:39:02;;;;;;;11.55;2.70;;;;;;;;;;5015690;28;20047;-45
2022/11/09 12:41:33;;;;;;;19.00;2.70;;;;;;;;;;5017803;28;20033;-48
2022/11/09 12:44:18;;;;;;;7.93;2.72;;;;;;;;;;5017296;28;20049;-52
2022/11/09 12:46:48;;;;;;;10.50;3.60;;;;;;;;;;5015804;28;20037;-47
2022/11/09 12:49:36;;;;;;;11.60;3.20;;;;;;;;;;5012535;28;20038;-51
2022/11/09 12:52:04;;;;;;;14.00;2.60;;;;;;;;;;5020229;28;20065;-51
2022/11/09 12:54:30;;;;;;;9.82;2.33;;;;;;;;;;5016289;28;20494;-50
2022/11/09 12:57:02;;;;;;;13.25;3.33;;;;;;;;;;5011928;28;20049;-50
2022/11/09 12:59:27;;;;;;;5.07;2.22;;;;;;;;;;5017458;28;20491;-50
2022/11/09 13:01:56;;;;;;;8.30;2.60;;;;;;;;;;5013061;28;20088;-45
2022/11/09 13:04:23;;;;;;;9.32;2.58;;;;;;;;;;5015295;28;20500;-46
2022/11/09 13:07:09;;;;;;;10.18;2.63;;;;;;;;;;5019769;28;20029;-48
2022/11/09 13:09:34;;;;;;;7.63;2.97;;;;;;;;;;5016088;28;20111;-49
2022/11/09 13:12:17;;;;;;;10.77;2.78;;;;;;;;;;5018174;28;20113;-45
2022/11/09 13:14:43;;;;;;;12.55;3.30;;;;;;;;;;5010401;28;20041;-48
2022/11/09 13:17:23;;;;;;;9.52;2.75;;;;;;;;;;5017772;28;20036;-45
2022/11/09 13:19:53;;;;;;;11.55;3.28;;;;;;;;;;5012450;28;20124;-49
2022/11/09 13:22:22;;;;;;;5.90;2.45;;;;;;;;;;5015110;28;20026;-47
2022/11/09 13:24:58;;;;;;;8.05;3.17;;;;;;;;;;5015559;28;20088;-49
2022/11/09 13:27:44;;;;;;;7.70;2.42;;;;;;;;;;5010430;28;20517;-47
2022/11/09 13:30:24;;;;;;;10.32;2.60;;;;;;;;;;5018676;28;22956;-50
2022/11/09 13:33:14;;;;;;;12.05;2.67;;;;;;;;;;5016696;28;20056;-46
2022/11/09 13:35:40;;;;;;;7.70;2.60;;;;;;;;;;5016492;28;20045;-46
2022/11/09 13:38:29;;;;;;;8.93;2.40;;;;;;;;;;5012634;28;20559;-47
2022/11/09 13:40:57;;;;;;;8.98;2.30;;;;;;;;;;5017993;28;20029;-45
2022/11/09 13:43:35;;;;;;;9.52;1.80;;;;;;;;;;5014901;28;20046;-48
2022/11/09 13:46:19;;;;;;;9.95;2.10;;;;;;;;;;5005182;28;20444;-51
2022/11/09 13:48:50;;;;;;;8.73;2.00;;;;;;;;;;5011158;28;20044;-49
2022/11/09 13:51:18;;;;;;;6.25;2.08;;;;;;;;;;5016705;28;20033;-50
2022/11/09 13:53:55;;;;;;;6.43;2.55;;;;;;;;;;5017500;28;20045;-49
2022/11/09 13:56:26;;;;;;;5.53;1.90;;;;;;;;;;5020147;28;20029;-47
2022/11/09 13:59:16;;;;;;;9.38;3.47;;;;;;;;;;5019696;28;20137;-48
2022/11/09 14:01:50;;;;;;;10.25;2.45;;;;;;;;;;5004208;28;20065;-49
2022/11/09 14:04:24;;;;;;;10.20;2.50;;;;;;;;;;5013474;28;20513;-51
2022/11/09 14:07:00;;;;;;;6.88;2.30;;;;;;;;;;5016403;28;20029;-46
2022/11/09 14:09:26;;;;;;;5.57;2.15;;;;;;;;;;5015241;28;20578;-49
2022/11/09 14:12:12;;;;;;;4.78;2.17;;;;;;;;;;5013981;28;20497;-46
2022/11/09 14:15:00;;;;;;;4.80;2.30;;;;;;;;;;5011512;28;20050;-48
2022/11/09 14:17:54;;;;;;;4.35;2.53;;;;;;;;;;5019282;28;20473;-50
2022/11/09 14:20:46;;;;;;;5.00;2.08;;;;;;;;;;4954693;28;20040;-46
2022/11/09 14:23:23;;;;;;;5.80;2.25;;;;;;;;;;4948368;28;20043;-48
2022/11/09 14:25:49;;;;;;;5.18;2.20;;;;;;;;;;4954512;28;20699;-49
2022/11/09 14:28:34;;;;;;;6.78;2.30;;;;;;;;;;4954878;28;20147;-47
2022/11/09 14:30:59;;;;;;;7.60;2.83;;;;;;;;;;4949382;28;20050;-46
2022/11/09 14:33:28;;;;;;;8.07;2.80;;;;;;;;;;4957448;28;20039;-49
2022/11/09 14:35:57;;;;;;;5.35;2.58;;;;;;;;;;4956349;28;20039;-46
2022/11/09 14:38:32;;;;;;;4.72;2.58;;;;;;;;;;4950685;28;20043;-47
2022/11/09 14:40:58;;;;;;;6.82;2.58;;;;;;;;;;4959460;28;20027;-48
2022/11/09 14:43:42;;;;;;;5.40;2.60;;;;;;;;;;4959281;28;20078;-46
2022/11/09 14:46:22;;;;;;;5.75;2.53;;;;;;;;;;4959249;28;20495;-45
2022/11/09 14:48:55;;;;;;;8.85;2.90;;;;;;;;;;4940486;28;20039;-49
2022/11/09 14:51:22;;;;;;;5.15;2.95;;;;;;;;;;4951496;28;20456;-50
2022/11/09 14:53:48;;;;;;;6.70;3.03;;;;;;;;;;4956623;28;20046;-47
2022/11/09 14:56:18;;;;;;;8.20;2.50;;;;;;;;;;4959752;28;20043;-47